sensor_id;sensor_type;location;lat;lon;timestamp;pressure;altitude;pressure_sealevel;temperature;humidity
15405;BME280;7801;48.124;11.590;2022-12-29T00:01:31;95278.06;;;6.64;63.26
15405;BME280;7801;48.124;11.590;2022-12-29T00:03:57;95276.50;;;6.48;64.16
15405;BME280;7801;48.124;11.590;2022-12-29T00:06:23;95272.03;;;6.48;63.76
15405;BME280;7801;48.124;11.590;2022-12-29T00:08:48;95272.53;;;6.50;63.25
15405;BME280;7801;48.124;11.590;2022-12-29T00:11:22;95267.00;;;6.57;63.01
15405;BME280;7801;48.124;11.590;2022-12-29T00:13:48;95256.97;;;6.64;62.79
15405;BME280;7801;48.124;11.590;2022-12-29T00:16:34;95264.31;;;6.72;62.24
15405;BME280;7801;48.124;11.590;2022-12-29T00:19:00;95267.50;;;6.64;62.75
15405;BME280;7801;48.124;11.590;2022-12-29T00:21:26;95257.97;;;6.73;62.16
15405;BME280;7801;48.124;11.590;2022-12-29T00:24:21;95256.38;;;6.77;62.29
15405;BME280;7801;48.124;11.590;2022-12-29T00:29:49;95254.19;;;6.95;61.11
15405;BME280;7801;48.124;11.590;2022-12-29T00:32:33;95251.63;;;6.84;61.38
15405;BME280;7801;48.124;11.590;2022-12-29T00:35:25;95248.50;;;6.67;63.75
15405;BME280;7801;48.124;11.590;2022-12-29T00:37:52;95243.75;;;6.69;63.11
15405;BME280;7801;48.124;11.590;2022-12-29T00:40:35;95248.50;;;6.67;61.88
15405;BME280;7801;48.124;11.590;2022-12-29T00:43:19;95245.87;;;6.67;61.99
15405;BME280;7801;48.124;11.590;2022-12-29T00:46:03;95250.91;;;6.64;61.38
15405;BME280;7801;48.124;11.590;2022-12-29T00:48:28;95244.25;;;6.76;61.39
15405;BME280;7801;48.124;11.590;2022-12-29T00:51:12;95245.59;;;6.69;62.10
15405;BME280;7801;48.124;11.590;2022-12-29T00:53:38;95245.84;;;6.72;61.68
15405;BME280;7801;48.124;11.590;2022-12-29T00:56:03;95247.41;;;6.83;61.05
15405;BME280;7801;48.124;11.590;2022-12-29T00:58:30;95244.19;;;6.86;60.71
15405;BME280;7801;48.124;11.590;2022-12-29T01:01:21;95245.31;;;6.75;61.15
15405;BME280;7801;48.124;11.590;2022-12-29T01:03:46;95246.44;;;6.64;62.16
15405;BME280;7801;48.124;11.590;2022-12-29T01:06:12;95244.53;;;6.75;61.27
15405;BME280;7801;48.124;11.590;2022-12-29T01:08:38;95249.06;;;6.59;62.14
15405;BME280;7801;48.124;11.590;2022-12-29T01:11:09;95242.75;;;6.60;61.87
15405;BME280;7801;48.124;11.590;2022-12-29T01:13:36;95254.81;;;6.66;61.57
15405;BME280;7801;48.124;11.590;2022-12-29T01:16:04;95249.56;;;6.66;61.74
15405;BME280;7801;48.124;11.590;2022-12-29T01:18:29;95248.53;;;6.62;61.18
15405;BME280;7801;48.124;11.590;2022-12-29T01:21:03;95247.44;;;6.68;61.50
15405;BME280;7801;48.124;11.590;2022-12-29T01:23:31;95260.94;;;6.57;61.42
15405;BME280;7801;48.124;11.590;2022-12-29T01:25:57;95255.41;;;6.53;61.44
15405;BME280;7801;48.124;11.590;2022-12-29T01:28:22;95257.53;;;6.56;61.42
15405;BME280;7801;48.124;11.590;2022-12-29T01:30:48;95256.47;;;6.47;61.68
15405;BME280;7801;48.124;11.590;2022-12-29T01:33:14;95259.63;;;6.54;61.50
15405;BME280;7801;48.124;11.590;2022-12-29T01:35:39;95250.63;;;6.65;60.91
15405;BME280;7801;48.124;11.590;2022-12-29T01:38:04;95264.03;;;6.69;60.96
15405;BME280;7801;48.124;11.590;2022-12-29T01:40:30;95264.38;;;6.47;61.75
15405;BME280;7801;48.124;11.590;2022-12-29T01:42:55;95261.47;;;6.53;61.13
15405;BME280;7801;48.124;11.590;2022-12-29T01:45:20;95261.78;;;6.42;61.98
15405;BME280;7801;48.124;11.590;2022-12-29T01:47:50;95260.72;;;6.43;61.84
15405;BME280;7801;48.124;11.590;2022-12-29T01:50:25;95259.94;;;6.37;61.98
15405;BME280;7801;48.124;11.590;2022-12-29T01:53:14;95259.63;;;6.49;61.42
15405;BME280;7801;48.124;11.590;2022-12-29T01:55:43;95262.28;;;6.49;61.67
15405;BME280;7801;48.124;11.590;2022-12-29T01:58:10;95255.41;;;6.58;61.68
15405;BME280;7801;48.124;11.590;2022-12-29T02:00:38;95258.06;;;6.53;61.35
15405;BME280;7801;48.124;11.590;2022-12-29T02:03:04;95261.47;;;6.48;61.34
15405;BME280;7801;48.124;11.590;2022-12-29T02:05:50;95252.56;;;6.34;61.66
15405;BME280;7801;48.124;11.590;2022-12-29T02:08:19;95248.62;;;6.32;61.46
15405;BME280;7801;48.124;11.590;2022-12-29T02:10:45;95247.31;;;6.39;61.45
15405;BME280;7801;48.124;11.590;2022-12-29T02:13:15;95245.13;;;6.57;60.71
15405;BME280;7801;48.124;11.590;2022-12-29T02:21:31;95239.09;;;6.51;60.71
15405;BME280;7801;48.124;11.590;2022-12-29T02:27:00;95241.12;;;6.69;60.33
15405;BME280;7801;48.124;11.590;2022-12-29T02:35:37;95246.88;;;6.81;59.33
15405;BME280;7801;48.124;11.590;2022-12-29T02:38:36;95248.47;;;6.72;59.86
15405;BME280;7801;48.124;11.590;2022-12-29T02:41:21;95246.88;;;6.76;59.63
15405;BME280;7801;48.124;11.590;2022-12-29T02:44:11;95235.81;;;6.74;59.93
15405;BME280;7801;48.124;11.590;2022-12-29T02:46:49;95241.59;;;6.81;59.18
15405;BME280;7801;48.124;11.590;2022-12-29T02:49:32;95236.34;;;6.81;59.42
15405;BME280;7801;48.124;11.590;2022-12-29T02:52:16;95236.06;;;6.83;59.02
15405;BME280;7801;48.124;11.590;2022-12-29T02:54:43;95238.37;;;6.89;57.81
15405;BME280;7801;48.124;11.590;2022-12-29T02:57:15;95242.31;;;6.97;57.25
15405;BME280;7801;48.124;11.590;2022-12-29T02:59:58;95229.16;;;6.87;57.61
15405;BME280;7801;48.124;11.590;2022-12-29T03:05:41;95219.97;;;6.84;58.05
15405;BME280;7801;48.124;11.590;2022-12-29T03:08:42;95227.38;;;6.82;57.52
15405;BME280;7801;48.124;11.590;2022-12-29T03:11:11;95223.94;;;6.82;58.90
15405;BME280;7801;48.124;11.590;2022-12-29T03:14:08;95219.91;;;6.95;57.68
15405;BME280;7801;48.124;11.590;2022-12-29T03:16:59;95214.91;;;6.88;57.41
15405;BME280;7801;48.124;11.590;2022-12-29T03:21:54;95202.75;;;6.97;56.59
15405;BME280;7801;48.124;11.590;2022-12-29T03:24:43;95197.72;;;7.01;56.69
15405;BME280;7801;48.124;11.590;2022-12-29T03:27:10;95199.25;;;7.07;55.64
15405;BME280;7801;48.124;11.590;2022-12-29T03:29:45;95193.94;;;7.12;56.12
15405;BME280;7801;48.124;11.590;2022-12-29T03:32:13;95191.56;;;7.10;56.33
15405;BME280;7801;48.124;11.590;2022-12-29T03:34:40;95189.97;;;7.14;56.43
15405;BME280;7801;48.124;11.590;2022-12-29T03:37:10;95194.91;;;7.26;56.29
15405;BME280;7801;48.124;11.590;2022-12-29T03:39:37;95199.97;;;7.22;56.11
15405;BME280;7801;48.124;11.590;2022-12-29T03:42:06;95193.38;;;7.20;55.59
15405;BME280;7801;48.124;11.590;2022-12-29T03:44:40;95185.84;;;7.37;55.58
15405;BME280;7801;48.124;11.590;2022-12-29T03:47:07;95195.34;;;7.38;55.35
15405;BME280;7801;48.124;11.590;2022-12-29T03:49:33;95184.53;;;7.40;55.43
15405;BME280;7801;48.124;11.590;2022-12-29T03:51:58;95189.00;;;7.39;55.79
15405;BME280;7801;48.124;11.590;2022-12-29T03:54:24;95194.41;;;7.24;55.39
15405;BME280;7801;48.124;11.590;2022-12-29T03:56:49;95193.75;;;7.42;54.83
15405;BME280;7801;48.124;11.590;2022-12-29T03:59:15;95189.50;;;7.46;55.71
15405;BME280;7801;48.124;11.590;2022-12-29T04:01:40;95182.91;;;7.44;55.49
15405;BME280;7801;48.124;11.590;2022-12-29T04:04:06;95190.19;;;7.57;54.04
15405;BME280;7801;48.124;11.590;2022-12-29T04:06:31;95176.94;;;7.62;53.66
15405;BME280;7801;48.124;11.590;2022-12-29T04:08:56;95180.88;;;7.65;53.83
15405;BME280;7801;48.124;11.590;2022-12-29T04:11:22;95188.28;;;7.63;54.45
15405;BME280;7801;48.124;11.590;2022-12-29T04:13:48;95185.78;;;7.76;53.71
15405;BME280;7801;48.124;11.590;2022-12-29T04:16:13;95182.91;;;7.73;53.55
15405;BME280;7801;48.124;11.590;2022-12-29T04:18:39;95182.13;;;7.72;53.19
15405;BME280;7801;48.124;11.590;2022-12-29T04:21:04;95176.03;;;7.72;53.88
15405;BME280;7801;48.124;11.590;2022-12-29T04:23:32;95184.41;;;7.84;53.86
15405;BME280;7801;48.124;11.590;2022-12-29T04:25:58;95182.88;;;7.78;53.73
15405;BME280;7801;48.124;11.590;2022-12-29T04:28:23;95198.50;;;7.98;52.87
15405;BME280;7801;48.124;11.590;2022-12-29T04:30:49;95189.31;;;7.90;53.06
15405;BME280;7801;48.124;11.590;2022-12-29T04:33:14;95184.16;;;7.80;53.01
15405;BME280;7801;48.124;11.590;2022-12-29T04:35:40;95177.53;;;7.83;53.33
15405;BME280;7801;48.124;11.590;2022-12-29T04:38:06;95183.78;;;7.92;53.53
15405;BME280;7801;48.124;11.590;2022-12-29T04:40:31;95171.59;;;7.96;52.97
15405;BME280;7801;48.124;11.590;2022-12-29T04:42:57;95176.47;;;7.84;53.20
15405;BME280;7801;48.124;11.590;2022-12-29T04:45:22;95179.00;;;7.94;53.23
15405;BME280;7801;48.124;11.590;2022-12-29T04:47:47;95172.69;;;7.90;53.40
15405;BME280;7801;48.124;11.590;2022-12-29T04:50:13;95179.56;;;7.91;53.07
15405;BME280;7801;48.124;11.590;2022-12-29T04:52:38;95171.22;;;7.79;53.18
15405;BME280;7801;48.124;11.590;2022-12-29T04:55:04;95166.97;;;7.83;53.11
15405;BME280;7801;48.124;11.590;2022-12-29T04:57:30;95168.59;;;7.79;53.27
15405;BME280;7801;48.124;11.590;2022-12-29T04:59:55;95167.50;;;7.85;53.64
15405;BME280;7801;48.124;11.590;2022-12-29T05:02:21;95163.06;;;7.75;54.12
15405;BME280;7801;48.124;11.590;2022-12-29T05:04:46;95165.34;;;7.87;53.52
15405;BME280;7801;48.124;11.590;2022-12-29T05:07:12;95175.81;;;7.97;53.14
15405;BME280;7801;48.124;11.590;2022-12-29T05:09:38;95173.69;;;7.99;53.15
15405;BME280;7801;48.124;11.590;2022-12-29T05:12:03;95173.59;;;8.09;52.72
15405;BME280;7801;48.124;11.590;2022-12-29T05:14:29;95177.09;;;8.00;53.15
15405;BME280;7801;48.124;11.590;2022-12-29T05:16:54;95178.06;;;8.09;52.62
15405;BME280;7801;48.124;11.590;2022-12-29T05:19:19;95167.09;;;8.20;52.36
15405;BME280;7801;48.124;11.590;2022-12-29T05:21:45;95174.94;;;8.07;53.21
15405;BME280;7801;48.124;11.590;2022-12-29T05:24:10;95178.88;;;8.09;53.61
15405;BME280;7801;48.124;11.590;2022-12-29T05:26:35;95182.63;;;8.03;53.56
15405;BME280;7801;48.124;11.590;2022-12-29T05:29:01;95183.69;;;8.02;54.23
15405;BME280;7801;48.124;11.590;2022-12-29T05:31:26;95182.91;;;8.02;54.73
15405;BME280;7801;48.124;11.590;2022-12-29T05:33:52;95189.25;;;8.01;54.60
15405;BME280;7801;48.124;11.590;2022-12-29T05:36:17;95181.47;;;7.85;55.07
15405;BME280;7801;48.124;11.590;2022-12-29T05:38:43;95187.44;;;7.96;54.19
15405;BME280;7801;48.124;11.590;2022-12-29T05:41:08;95178.66;;;7.77;54.25
15405;BME280;7801;48.124;11.590;2022-12-29T05:43:34;95172.81;;;7.80;54.81
15405;BME280;7801;48.124;11.590;2022-12-29T05:45:59;95175.34;;;7.90;55.10
15405;BME280;7801;48.124;11.590;2022-12-29T05:48:25;95179.34;;;7.87;55.45
15405;BME280;7801;48.124;11.590;2022-12-29T05:50:51;95177.78;;;7.86;54.21
15405;BME280;7801;48.124;11.590;2022-12-29T05:53:17;95185.16;;;7.89;54.74
15405;BME280;7801;48.124;11.590;2022-12-29T05:55:43;95177.66;;;7.97;55.15
15405;BME280;7801;48.124;11.590;2022-12-29T05:58:09;95176.87;;;7.96;54.78
15405;BME280;7801;48.124;11.590;2022-12-29T06:00:34;95176.87;;;7.96;54.64
15405;BME280;7801;48.124;11.590;2022-12-29T06:02:59;95179.66;;;7.81;54.94
15405;BME280;7801;48.124;11.590;2022-12-29T06:05:25;95178.59;;;7.82;55.85
15405;BME280;7801;48.124;11.590;2022-12-29T06:07:50;95170.44;;;7.78;55.74
15405;BME280;7801;48.124;11.590;2022-12-29T06:10:16;95172.06;;;7.74;55.39
15405;BME280;7801;48.124;11.590;2022-12-29T06:12:41;95180.78;;;7.75;55.29
15405;BME280;7801;48.124;11.590;2022-12-29T06:15:07;95179.13;;;7.84;55.48
15405;BME280;7801;48.124;11.590;2022-12-29T06:17:32;95173.88;;;7.79;54.85
15405;BME280;7801;48.124;11.590;2022-12-29T06:19:57;95173.09;;;7.78;55.42
15405;BME280;7801;48.124;11.590;2022-12-29T06:22:23;95172.81;;;7.80;55.90
15405;BME280;7801;48.124;11.590;2022-12-29T06:24:48;95171.22;;;7.79;55.53
15405;BME280;7801;48.124;11.590;2022-12-29T06:27:14;95174.59;;;7.89;56.06
15405;BME280;7801;48.124;11.590;2022-12-29T06:29:39;95182.00;;;7.87;55.12
15405;BME280;7801;48.124;11.590;2022-12-29T06:32:06;95175.50;;;7.75;55.37
15405;BME280;7801;48.124;11.590;2022-12-29T06:34:31;95187.62;;;7.76;54.92
15405;BME280;7801;48.124;11.590;2022-12-29T06:36:58;95182.50;;;7.89;54.92
15405;BME280;7801;48.124;11.590;2022-12-29T06:39:24;95176.28;;;7.75;55.19
15405;BME280;7801;48.124;11.590;2022-12-29T06:41:52;95187.62;;;7.76;56.70
15405;BME280;7801;48.124;11.590;2022-12-29T06:44:17;95185.47;;;7.83;56.66
15405;BME280;7801;48.124;11.590;2022-12-29T06:46:42;95186.69;;;7.90;55.55
15405;BME280;7801;48.124;11.590;2022-12-29T06:49:08;95184.63;;;7.87;55.68
15405;BME280;7801;48.124;11.590;2022-12-29T06:51:33;95180.53;;;7.71;55.36
15405;BME280;7801;48.124;11.590;2022-12-29T06:53:58;95179.13;;;7.84;54.97
15405;BME280;7801;48.124;11.590;2022-12-29T06:56:24;95180.28;;;7.97;54.70
15405;BME280;7801;48.124;11.590;2022-12-29T06:58:49;95184.84;;;7.91;54.85
15405;BME280;7801;48.124;11.590;2022-12-29T07:01:14;95185.84;;;7.95;55.61
15405;BME280;7801;48.124;11.590;2022-12-29T07:03:41;95190.91;;;7.91;56.56
15405;BME280;7801;48.124;11.590;2022-12-29T07:06:07;95193.00;;;7.94;55.39
15405;BME280;7801;48.124;11.590;2022-12-29T07:08:32;95194.22;;;7.78;55.13
15405;BME280;7801;48.124;11.590;2022-12-29T07:10:58;95190.78;;;7.78;55.77
15405;BME280;7801;48.124;11.590;2022-12-29T07:13:23;95195.56;;;7.76;55.68
15405;BME280;7801;48.124;11.590;2022-12-29T07:15:48;95194.97;;;7.84;55.17
15405;BME280;7801;48.124;11.590;2022-12-29T07:18:14;95201.81;;;7.85;54.85
15405;BME280;7801;48.124;11.590;2022-12-29T07:20:39;95205.88;;;8.01;54.72
15405;BME280;7801;48.124;11.590;2022-12-29T07:23:04;95210.66;;;7.99;54.47
15405;BME280;7801;48.124;11.590;2022-12-29T07:25:29;95213.25;;;8.04;54.26
15405;BME280;7801;48.124;11.590;2022-12-29T07:27:55;95219.75;;;8.12;53.87
15405;BME280;7801;48.124;11.590;2022-12-29T07:30:20;95212.69;;;8.07;54.38
15405;BME280;7801;48.124;11.590;2022-12-29T07:32:46;95217.56;;;7.95;54.92
15405;BME280;7801;48.124;11.590;2022-12-29T07:35:11;95219.75;;;7.88;55.06
15405;BME280;7801;48.124;11.590;2022-12-29T07:37:36;95212.78;;;7.97;54.54
15405;BME280;7801;48.124;11.590;2022-12-29T07:40:02;95228.16;;;7.90;54.66
15405;BME280;7801;48.124;11.590;2022-12-29T07:42:28;95224.00;;;7.84;54.81
15405;BME280;7801;48.124;11.590;2022-12-29T07:44:54;95215.84;;;7.80;55.29
15405;BME280;7801;48.124;11.590;2022-12-29T07:47:19;95224.56;;;7.81;55.14
15405;BME280;7801;48.124;11.590;2022-12-29T07:49:44;95223.97;;;7.89;55.17
15405;BME280;7801;48.124;11.590;2022-12-29T07:52:10;95224.13;;;7.98;54.30
15405;BME280;7801;48.124;11.590;2022-12-29T07:54:35;95226.00;;;7.97;54.99
15405;BME280;7801;48.124;11.590;2022-12-29T07:57:00;95219.12;;;7.96;54.33
15405;BME280;7801;48.124;11.590;2022-12-29T07:59:26;95224.38;;;8.01;53.79
15405;BME280;7801;48.124;11.590;2022-12-29T08:01:51;95229.06;;;8.09;53.61
15405;BME280;7801;48.124;11.590;2022-12-29T08:04:17;95232.03;;;8.03;53.91
15405;BME280;7801;48.124;11.590;2022-12-29T08:06:42;95231.78;;;7.99;54.37
15405;BME280;7801;48.124;11.590;2022-12-29T08:09:08;95235.72;;;8.02;54.13
15405;BME280;7801;48.124;11.590;2022-12-29T08:11:34;95225.56;;;8.14;53.25
15405;BME280;7801;48.124;11.590;2022-12-29T08:13:59;95237.03;;;8.04;54.30
15405;BME280;7801;48.124;11.590;2022-12-29T08:16:24;95231.59;;;8.19;53.13
15405;BME280;7801;48.124;11.590;2022-12-29T08:18:49;95227.28;;;8.28;52.38
15405;BME280;7801;48.124;11.590;2022-12-29T08:21:15;95233.91;;;8.26;52.42
15405;BME280;7801;48.124;11.590;2022-12-29T08:23:40;95236.31;;;8.22;54.62
15405;BME280;7801;48.124;11.590;2022-12-29T08:26:06;95240.25;;;8.25;52.81
15405;BME280;7801;48.124;11.590;2022-12-29T08:28:32;95238.97;;;8.22;52.94
15405;BME280;7801;48.124;11.590;2022-12-29T08:30:59;95234.41;;;8.28;52.13
15405;BME280;7801;48.124;11.590;2022-12-29T08:33:26;95232.56;;;8.28;52.75
15405;BME280;7801;48.124;11.590;2022-12-29T08:35:51;95230.66;;;8.34;52.17
15405;BME280;7801;48.124;11.590;2022-12-29T08:38:17;95229.03;;;8.38;53.17
15405;BME280;7801;48.124;11.590;2022-12-29T08:40:43;95231.78;;;8.28;53.53
15405;BME280;7801;48.124;11.590;2022-12-29T08:43:09;95230.66;;;8.34;52.74
15405;BME280;7801;48.124;11.590;2022-12-29T08:45:34;95230.06;;;8.42;52.38
15405;BME280;7801;48.124;11.590;2022-12-29T08:48:00;95232.28;;;8.54;51.76
15405;BME280;7801;48.124;11.590;2022-12-29T08:50:25;95234.88;;;8.59;51.68
15405;BME280;7801;48.124;11.590;2022-12-29T08:52:50;95237.63;;;8.73;51.31
15405;BME280;7801;48.124;11.590;2022-12-29T08:55:16;95234.00;;;8.87;51.60
15405;BME280;7801;48.124;11.590;2022-12-29T08:57:41;95236.87;;;8.91;52.55
15405;BME280;7801;48.124;11.590;2022-12-29T09:00:07;95232.28;;;8.96;50.36
15405;BME280;7801;48.124;11.590;2022-12-29T09:02:33;95242.97;;;8.91;52.82
15405;BME280;7801;48.124;11.590;2022-12-29T09:04:58;95240.81;;;8.93;52.84
15405;BME280;7801;48.124;11.590;2022-12-29T09:07:24;95234.44;;;8.94;51.78
15405;BME280;7801;48.124;11.590;2022-12-29T09:09:52;95237.81;;;9.00;50.54
15405;BME280;7801;48.124;11.590;2022-12-29T09:12:17;95248.03;;;9.07;50.16
15405;BME280;7801;48.124;11.590;2022-12-29T09:14:45;95249.28;;;9.14;50.08
15405;BME280;7801;48.124;11.590;2022-12-29T09:17:10;95253.00;;;9.13;50.43
15405;BME280;7801;48.124;11.590;2022-12-29T09:19:54;95251.03;;;9.19;50.89
15405;BME280;7801;48.124;11.590;2022-12-29T09:22:22;95249.84;;;9.30;50.10
15405;BME280;7801;48.124;11.590;2022-12-29T09:24:47;95252.63;;;9.20;52.01
15405;BME280;7801;48.124;11.590;2022-12-29T09:27:13;95262.06;;;9.26;50.42
15405;BME280;7801;48.124;11.590;2022-12-29T09:29:38;95262.50;;;9.14;51.70
15405;BME280;7801;48.124;11.590;2022-12-29T09:32:06;95263.25;;;9.15;51.73
15405;BME280;7801;48.124;11.590;2022-12-29T09:34:32;95264.78;;;9.21;51.00
15405;BME280;7801;48.124;11.590;2022-12-29T09:36:57;95259.19;;;9.41;54.22
15405;BME280;7801;48.124;11.590;2022-12-29T09:39:23;95266.22;;;9.51;52.54
15405;BME280;7801;48.124;11.590;2022-12-29T09:42:29;95256.91;;;9.53;52.88
15405;BME280;7801;48.124;11.590;2022-12-29T09:45:17;95255.09;;;9.68;51.87
15405;BME280;7801;48.124;11.590;2022-12-29T09:47:45;95250.03;;;9.71;51.14
15405;BME280;7801;48.124;11.590;2022-12-29T09:55:25;95238.47;;;9.81;48.97
15405;BME280;7801;48.124;11.590;2022-12-29T09:58:04;95239.38;;;9.90;49.18
15405;BME280;7801;48.124;11.590;2022-12-29T10:00:41;95233.50;;;9.93;48.55
15405;BME280;7801;48.124;11.590;2022-12-29T10:03:16;95234.16;;;9.85;49.24
15405;BME280;7801;48.124;11.590;2022-12-29T10:16:57;95215.19;;;9.78;48.72
15405;BME280;7801;48.124;11.590;2022-12-29T10:25:17;95201.13;;;9.96;49.59
15405;BME280;7801;48.124;11.590;2022-12-29T10:27:47;95207.41;;;10.00;48.37
15405;BME280;7801;48.124;11.590;2022-12-29T10:30:13;95208.66;;;9.89;47.48
15405;BME280;7801;48.124;11.590;2022-12-29T10:32:43;95211.22;;;9.94;48.01
15405;BME280;7801;48.124;11.590;2022-12-29T10:35:18;95211.72;;;9.96;47.85
15405;BME280;7801;48.124;11.590;2022-12-29T10:38:27;95219.88;;;9.99;48.24
15405;BME280;7801;48.124;11.590;2022-12-29T10:41:03;95219.19;;;10.08;47.86
15405;BME280;7801;48.124;11.590;2022-12-29T10:43:37;95215.06;;;10.02;48.53
15405;BME280;7801;48.124;11.590;2022-12-29T10:46:13;95214.97;;;10.07;47.97
15405;BME280;7801;48.124;11.590;2022-12-29T10:48:40;95209.63;;;10.25;48.35
15405;BME280;7801;48.124;11.590;2022-12-29T10:51:07;95210.28;;;10.17;48.17
15405;BME280;7801;48.124;11.590;2022-12-29T10:53:48;95199.28;;;10.10;49.04
15405;BME280;7801;48.124;11.590;2022-12-29T10:56:35;95199.41;;;10.19;47.68
15405;BME280;7801;48.124;11.590;2022-12-29T10:59:22;95194.78;;;10.11;48.19
15405;BME280;7801;48.124;11.590;2022-12-29T11:07:07;95179.97;;;10.23;48.95
15405;BME280;7801;48.124;11.590;2022-12-29T11:09:36;95180.47;;;10.25;47.98
15405;BME280;7801;48.124;11.590;2022-12-29T11:14:43;95177.63;;;10.36;46.94
15405;BME280;7801;48.124;11.590;2022-12-29T11:17:15;95170.97;;;10.38;47.30
15405;BME280;7801;48.124;11.590;2022-12-29T11:19:41;95175.19;;;10.39;46.61
15405;BME280;7801;48.124;11.590;2022-12-29T11:24:49;95160.72;;;10.59;46.04
15405;BME280;7801;48.124;11.590;2022-12-29T11:27:25;95164.34;;;10.63;45.99
15405;BME280;7801;48.124;11.590;2022-12-29T11:29:52;95154.72;;;10.67;46.07
15405;BME280;7801;48.124;11.590;2022-12-29T11:32:23;95158.94;;;10.68;46.75
15405;BME280;7801;48.124;11.590;2022-12-29T11:34:49;95154.13;;;10.70;45.29
15405;BME280;7801;48.124;11.590;2022-12-29T11:37:18;95142.19;;;10.81;47.62
15405;BME280;7801;48.124;11.590;2022-12-29T11:40:17;95143.47;;;10.84;46.26
15405;BME280;7801;48.124;11.590;2022-12-29T11:42:55;95147.03;;;10.79;46.02
15405;BME280;7801;48.124;11.590;2022-12-29T11:45:30;95139.44;;;10.86;45.95
15405;BME280;7801;48.124;11.590;2022-12-29T11:48:05;95140.81;;;10.84;45.34
15405;BME280;7801;48.124;11.590;2022-12-29T11:50:34;95155.34;;;10.86;45.86
15405;BME280;7801;48.124;11.590;2022-12-29T11:53:28;95140.66;;;10.80;45.83
15405;BME280;7801;48.124;11.590;2022-12-29T11:58:17;95142.47;;;10.93;44.96
15405;BME280;7801;48.124;11.590;2022-12-29T12:00:44;95139.22;;;10.96;45.07
15405;BME280;7801;48.124;11.590;2022-12-29T12:03:14;95146.09;;;10.97;45.02
15405;BME280;7801;48.124;11.590;2022-12-29T12:05:54;95145.66;;;11.04;44.25
15405;BME280;7801;48.124;11.590;2022-12-29T12:11:22;95140.41;;;10.90;44.44
15405;BME280;7801;48.124;11.590;2022-12-29T12:17:16;95140.59;;;10.94;44.35
15405;BME280;7801;48.124;11.590;2022-12-29T12:19:47;95134.88;;;11.00;43.54
15405;BME280;7801;48.124;11.590;2022-12-29T12:22:37;95134.56;;;11.02;43.89
15405;BME280;7801;48.124;11.590;2022-12-29T12:25:15;95129.63;;;11.09;44.62
15405;BME280;7801;48.124;11.590;2022-12-29T12:28:10;95117.75;;;11.07;44.05
15405;BME280;7801;48.124;11.590;2022-12-29T12:30:46;95114.78;;;11.08;44.20
15405;BME280;7801;48.124;11.590;2022-12-29T12:36:14;95106.44;;;11.23;44.38
15405;BME280;7801;48.124;11.590;2022-12-29T12:49:38;95104.59;;;11.24;45.26
15405;BME280;7801;48.124;11.590;2022-12-29T12:57:49;95092.63;;;11.35;45.92
15405;BME280;7801;48.124;11.590;2022-12-29T13:00:19;95095.00;;;11.36;47.69
15405;BME280;7801;48.124;11.590;2022-12-29T13:19:40;95094.72;;;11.47;46.61
15405;BME280;7801;48.124;11.590;2022-12-29T13:22:13;95095.34;;;11.44;48.21
15405;BME280;7801;48.124;11.590;2022-12-29T13:30:15;95085.69;;;11.48;46.73
15405;BME280;7801;48.124;11.590;2022-12-29T13:32:53;95088.03;;;11.49;46.80
15405;BME280;7801;48.124;11.590;2022-12-29T13:38:22;95081.59;;;11.42;47.65
15405;BME280;7801;48.124;11.590;2022-12-29T13:40:55;95078.16;;;11.41;47.18
15405;BME280;7801;48.124;11.590;2022-12-29T13:43:22;95086.44;;;11.40;47.27
15405;BME280;7801;48.124;11.590;2022-12-29T13:46:28;95078.75;;;11.38;47.88
15405;BME280;7801;48.124;11.590;2022-12-29T13:49:22;95090.19;;;11.47;47.93
15405;BME280;7801;48.124;11.590;2022-12-29T13:51:54;95096.31;;;11.48;48.07
15405;BME280;7801;48.124;11.590;2022-12-29T13:57:12;95091.87;;;11.43;48.55
15405;BME280;7801;48.124;11.590;2022-12-29T13:59:51;95101.69;;;11.34;49.00
15405;BME280;7801;48.124;11.590;2022-12-29T14:07:43;95103.97;;;11.27;49.50
15405;BME280;7801;48.124;11.590;2022-12-29T14:10:38;95090.72;;;11.27;49.10
15405;BME280;7801;48.124;11.590;2022-12-29T14:13:19;95099.16;;;11.29;48.54
15405;BME280;7801;48.124;11.590;2022-12-29T14:15:59;95108.09;;;11.33;48.52
15405;BME280;7801;48.124;11.590;2022-12-29T14:18:26;95093.19;;;11.23;49.13
15405;BME280;7801;48.124;11.590;2022-12-29T14:21:04;95099.56;;;11.22;49.49
15405;BME280;7801;48.124;11.590;2022-12-29T14:23:45;95090.84;;;11.22;49.39
15405;BME280;7801;48.124;11.590;2022-12-29T14:28:42;95097.25;;;11.21;50.68
15405;BME280;7801;48.124;11.590;2022-12-29T14:33:40;95113.00;;;11.17;49.44
15405;BME280;7801;48.124;11.590;2022-12-29T14:36:25;95109.06;;;11.15;50.04
15405;BME280;7801;48.124;11.590;2022-12-29T14:38:51;95111.34;;;11.08;50.46
15405;BME280;7801;48.124;11.590;2022-12-29T14:41:30;95109.78;;;11.07;49.96
15405;BME280;7801;48.124;11.590;2022-12-29T14:44:00;95107.72;;;11.03;50.30
15405;BME280;7801;48.124;11.590;2022-12-29T14:49:24;95109.47;;;11.08;51.90
15405;BME280;7801;48.124;11.590;2022-12-29T14:51:55;95114.44;;;11.01;50.04
15405;BME280;7801;48.124;11.590;2022-12-29T14:57:07;95116.91;;;10.97;50.91
15405;BME280;7801;48.124;11.590;2022-12-29T14:59:35;95113.38;;;10.88;51.28
15405;BME280;7801;48.124;11.590;2022-12-29T15:02:03;95121.34;;;10.88;50.56
15405;BME280;7801;48.124;11.590;2022-12-29T15:04:33;95116.53;;;10.90;50.38
15405;BME280;7801;48.124;11.590;2022-12-29T15:07:01;95110.72;;;10.88;50.54
15405;BME280;7801;48.124;11.590;2022-12-29T15:10:08;95119.59;;;10.84;51.22
15405;BME280;7801;48.124;11.590;2022-12-29T15:12:45;95117.53;;;10.81;52.05
15405;BME280;7801;48.124;11.590;2022-12-29T15:15:27;95117.66;;;10.76;50.65
15405;BME280;7801;48.124;11.590;2022-12-29T15:17:54;95124.03;;;10.75;50.03
15405;BME280;7801;48.124;11.590;2022-12-29T15:20:27;95132.19;;;10.78;49.68
15405;BME280;7801;48.124;11.590;2022-12-29T15:22:55;95128.56;;;10.74;51.92
15405;BME280;7801;48.124;11.590;2022-12-29T15:25:22;95125.22;;;10.68;51.92
15405;BME280;7801;48.124;11.590;2022-12-29T15:27:53;95130.34;;;10.65;51.69
15405;BME280;7801;48.124;11.590;2022-12-29T15:30:20;95121.78;;;10.68;50.40
15405;BME280;7801;48.124;11.590;2022-12-29T15:32:47;95130.81;;;10.67;49.88